Time;durP1;ratioP1;P1;durP2;ratioP2;P2;SDS_P1;SDS_P2;PMS_P1;PMS_P2;Temp;Humidity;BMP_temperature;BMP_pressure;BME280_temperature;BME280_humidity;BME280_pressure;Samples;Min_cycle;Max_cycle;Signal;HPM_P1;HPM_P2
2021/08/05 00:00:16;;;;;;;9.02;8.07;;;17.40;99.90;;;;;;2049128;29;20028;-72
2021/08/05 00:01:17;;;;;;;10.65;9.00;;;17.40;99.90;;;;;;2049307;28;20046;-70
2021/08/05 00:02:17;;;;;;;10.02;8.50;;;17.40;99.90;;;;;;2049220;29;20028;-72
2021/08/05 00:03:18;;;;;;;9.80;8.70;;;17.40;99.90;;;;;;2049212;28;20031;-72
2021/08/05 00:04:18;;;;;;;8.85;7.95;;;17.40;99.90;;;;;;2049193;28;20074;-71
2021/08/05 00:10:04;;;;;;;10.15;9.15;;;17.40;99.90;;;;;;2049273;29;20035;-72
2021/08/05 00:11:05;;;;;;;10.15;9.00;;;17.40;99.90;;;;;;2049142;28;20055;-71
2021/08/05 00:12:07;;;;;;;9.50;8.52;;;17.30;99.90;;;;;;2050305;29;20751;-70
2021/08/05 00:13:07;;;;;;;9.60;8.60;;;17.40;99.90;;;;;;2049822;29;20484;-69
2021/08/05 00:14:08;;;;;;;10.18;9.10;;;17.30;99.90;;;;;;2049013;29;20143;-70
2021/08/05 00:15:09;;;;;;;9.45;8.55;;;17.30;99.90;;;;;;2049254;29;20093;-71
2021/08/05 00:16:10;;;;;;;10.00;8.80;;;17.30;99.90;;;;;;2049181;29;20035;-71
2021/08/05 00:17:11;;;;;;;9.40;8.50;;;17.30;99.90;;;;;;2048912;29;20050;-68
2021/08/05 00:18:12;;;;;;;9.95;8.77;;;17.40;99.90;;;;;;2048939;28;20039;-71
2021/08/05 00:19:12;;;;;;;9.95;8.77;;;17.30;99.90;;;;;;2049007;29;20126;-70
2021/08/05 00:20:13;;;;;;;9.65;8.75;;;17.30;99.90;;;;;;2048396;28;20037;-70
2021/08/05 00:21:16;;;;;;;9.18;8.27;;;17.30;99.90;;;;;;2048490;29;20023;-71
2021/08/05 00:22:17;;;;;;;9.32;8.43;;;17.30;99.90;;;;;;2048998;28;20031;-71
2021/08/05 00:23:17;;;;;;;10.18;8.63;;;17.30;99.90;;;;;;2049063;28;20372;-70
2021/08/05 00:24:18;;;;;;;9.48;8.52;;;17.30;99.90;;;;;;2048962;29;20023;-71
2021/08/05 00:25:18;;;;;;;9.32;8.38;;;17.30;99.90;;;;;;2048828;28;20154;-70
2021/08/05 00:26:19;;;;;;;9.48;8.55;;;17.30;99.90;;;;;;2049021;28;20507;-70
2021/08/05 00:27:20;;;;;;;9.88;8.90;;;17.30;99.90;;;;;;2048871;29;20103;-70
2021/08/05 00:28:20;;;;;;;9.93;8.90;;;17.30;99.90;;;;;;2048073;29;20786;-70
2021/08/05 00:29:21;;;;;;;9.57;8.68;;;17.30;99.90;;;;;;2048267;29;20074;-70
2021/08/05 00:30:23;;;;;;;10.25;8.88;;;17.30;99.90;;;;;;2048505;29;20069;-69
2021/08/05 00:31:24;;;;;;;9.57;8.63;;;17.30;99.90;;;;;;2049167;28;20035;-70
2021/08/05 00:32:24;;;;;;;9.98;9.00;;;17.40;99.90;;;;;;2049210;29;20069;-70
2021/08/05 00:33:25;;;;;;;10.23;9.23;;;17.30;99.90;;;;;;2048575;28;20035;-70
2021/08/05 00:34:26;;;;;;;9.70;8.80;;;17.30;99.90;;;;;;2040597;29;20035;-68
2021/08/05 00:35:27;;;;;;;10.98;9.27;;;17.30;99.90;;;;;;2048574;29;20457;-72
2021/08/05 00:36:28;;;;;;;10.13;9.10;;;17.30;99.90;;;;;;2048425;29;20039;-68
2021/08/05 00:37:30;;;;;;;9.55;8.60;;;17.30;99.90;;;;;;2040200;29;20035;-70
2021/08/05 00:38:30;;;;;;;9.98;8.90;;;17.30;99.90;;;;;;2032328;29;20465;-69
2021/08/05 00:39:31;;;;;;;9.85;8.90;;;17.30;99.90;;;;;;2040391;29;20031;-69
2021/08/05 00:40:32;;;;;;;9.68;8.68;;;17.30;99.90;;;;;;2040280;29;20096;-72
2021/08/05 00:41:33;;;;;;;9.50;8.43;;;17.30;99.90;;;;;;2040247;29;20130;-70
2021/08/05 00:42:33;;;;;;;9.95;8.95;;;17.30;99.90;;;;;;2048180;29;20673;-71
2021/08/05 00:43:34;;;;;;;9.52;8.52;;;17.30;99.90;;;;;;2048049;29;20043;-70
2021/08/05 00:44:36;;;;;;;9.60;8.20;;;17.30;99.90;;;;;;2040277;29;20404;-70
2021/08/05 00:45:37;;;;;;;9.90;8.90;;;17.30;99.90;;;;;;2040392;29;20039;-70
2021/08/05 00:46:38;;;;;;;10.18;8.52;;;17.30;99.90;;;;;;2040297;29;20476;-69
2021/08/05 00:47:39;;;;;;;10.35;8.98;;;17.30;99.90;;;;;;2040190;29;20036;-70
2021/08/05 00:48:39;;;;;;;9.57;8.45;;;17.30;99.90;;;;;;2040084;29;20211;-70
2021/08/05 00:49:40;;;;;;;9.75;8.85;;;17.30;99.90;;;;;;2048293;29;20051;-69
2021/08/05 00:50:41;;;;;;;10.15;9.15;;;17.30;99.90;;;;;;2048087;29;20051;-70
2021/08/05 00:51:43;;;;;;;9.68;8.75;;;17.30;99.90;;;;;;2048193;29;20035;-69
2021/08/05 00:52:44;;;;;;;9.95;8.95;;;17.30;99.90;;;;;;2048227;29;20027;-71
2021/08/05 00:53:45;;;;;;;10.18;9.18;;;17.30;99.90;;;;;;2048127;29;20035;-70
2021/08/05 00:54:45;;;;;;;9.35;8.45;;;17.30;99.90;;;;;;2040297;29;20468;-71
2021/08/05 00:55:46;;;;;;;9.55;8.60;;;17.30;99.90;;;;;;2048130;29;20100;-69
2021/08/05 00:56:47;;;;;;;10.25;9.15;;;17.30;99.90;;;;;;2047999;29;20027;-71
2021/08/05 00:57:48;;;;;;;9.20;8.27;;;17.30;99.90;;;;;;2047761;28;20090;-70
2021/08/05 00:58:48;;;;;;;9.75;8.75;;;17.30;99.90;;;;;;2047923;29;20034;-69
2021/08/05 00:59:49;;;;;;;10.15;8.88;;;17.30;99.90;;;;;;2048129;29;20095;-69
2021/08/05 01:00:52;;;;;;;9.52;8.63;;;17.40;99.90;;;;;;2048676;28;20051;-70
2021/08/05 01:02:00;;;;;;;9.60;8.60;;;17.30;99.90;;;;;;2048276;29;20115;-69
2021/08/05 01:03:13;;;;;;;9.52;8.63;;;17.30;99.90;;;;;;2048331;29;20511;-69
2021/08/05 01:04:14;;;;;;;9.30;8.48;;;17.30;99.90;;;;;;2040499;29;20472;-70
2021/08/05 01:05:17;;;;;;;9.48;8.57;;;17.30;99.90;;;;;;2032638;29;20040;-70
2021/08/05 01:06:25;;;;;;;9.93;8.93;;;17.30;99.90;;;;;;2040533;29;20091;-70
2021/08/05 01:07:35;;;;;;;10.75;9.65;;;17.30;99.90;;;;;;2041017;29;20373;-70
2021/08/05 01:08:41;;;;;;;10.93;9.50;;;17.30;99.90;;;;;;2048110;29;20039;-70
2021/08/05 01:09:55;;;;;;;11.35;9.38;;;17.30;99.90;;;;;;2048822;28;20038;-69
2021/08/05 01:11:13;;;;;;;11.18;9.20;;;17.30;99.90;;;;;;2048846;28;20494;-69
2021/08/05 01:12:42;;;;;;;10.93;9.40;;;17.30;99.90;;;;;;2048806;29;20023;-71
2021/08/05 01:13:50;;;;;;;10.43;9.35;;;17.30;99.90;;;;;;2048020;28;20117;-71
2021/08/05 01:15:02;;;;;;;10.27;9.10;;;17.30;99.90;;;;;;2041235;29;20027;-70
2021/08/05 01:16:09;;;;;;;13.55;9.90;;;17.30;99.90;;;;;;2048145;29;20023;-70
2021/08/05 01:17:12;;;;;;;11.10;9.52;;;17.30;99.90;;;;;;2048110;29;20023;-68
2021/08/05 01:18:26;;;;;;;10.98;9.88;;;17.30;99.90;;;;;;2047518;29;20051;-70
2021/08/05 01:19:50;;;;;;;11.85;10.32;;;17.30;99.90;;;;;;2047862;28;20035;-70
2021/08/05 01:20:52;;;;;;;11.25;10.13;;;17.30;99.90;;;;;;2047669;28;20051;-70
2021/08/05 01:22:43;;;;;;;10.30;9.20;;;17.20;99.90;;;;;;2048590;29;20163;-71
2021/08/05 01:23:53;;;;;;;;;;;17.20;99.90;;;;;;2024504;29;20173;-69
2021/08/05 01:25:03;;;;;;;11.35;10.10;;;17.20;99.90;;;;;;2048162;29;19913;-69
2021/08/05 01:26:09;;;;;;;10.65;9.55;;;17.10;99.90;;;;;;2048523;29;20027;-68
2021/08/05 01:27:10;;;;;;;11.05;9.95;;;17.20;99.90;;;;;;2048611;28;20032;-70
2021/08/05 01:28:12;;;;;;;11.68;9.90;;;17.20;99.90;;;;;;2047403;29;20054;-69
2021/08/05 01:29:15;;;;;;;11.43;10.02;;;17.20;99.90;;;;;;2048077;29;20027;-70
2021/08/05 01:30:16;;;;;;;11.32;10.18;;;17.10;99.90;;;;;;2048021;29;20099;-71
2021/08/05 01:31:20;;;;;;;11.05;9.95;;;17.10;99.90;;;;;;2040118;29;20224;-69
2021/08/05 01:32:22;;;;;;;11.85;10.57;;;17.10;99.90;;;;;;2040667;29;20042;-73
2021/08/05 01:33:23;;;;;;;12.25;10.18;;;17.10;99.90;;;;;;2040408;29;20038;-69
2021/08/05 01:34:24;;;;;;;10.57;9.57;;;17.10;99.90;;;;;;2040170;29;20554;-69
2021/08/05 01:35:26;;;;;;;10.68;9.68;;;17.10;99.90;;;;;;2040034;29;20035;-70
2021/08/05 01:36:28;;;;;;;11.38;9.98;;;17.10;99.90;;;;;;2040223;29;20058;-69
2021/08/05 01:37:29;;;;;;;11.60;10.40;;;17.10;99.90;;;;;;2047919;29;20110;-70
2021/08/05 01:38:33;;;;;;;10.65;9.63;;;17.10;99.90;;;;;;2047737;29;20039;-70
2021/08/05 01:39:33;;;;;;;10.88;9.85;;;17.10;99.90;;;;;;2040518;29;20172;-70
2021/08/05 01:40:34;;;;;;;11.50;10.40;;;17.10;99.90;;;;;;2040216;29;20036;-71
2021/08/05 01:41:36;;;;;;;10.90;9.80;;;17.10;99.90;;;;;;2047829;29;20065;-71
2021/08/05 01:42:38;;;;;;;11.00;9.73;;;17.10;99.90;;;;;;2039992;29;20059;-71
2021/08/05 01:43:39;;;;;;;10.93;9.82;;;17.10;99.90;;;;;;2032273;29;20032;-70
2021/08/05 01:44:43;;;;;;;10.80;9.70;;;17.10;99.90;;;;;;2040114;29;20036;-72
2021/08/05 01:45:45;;;;;;;10.40;9.40;;;17.10;99.90;;;;;;2039954;29;20035;-70
2021/08/05 01:46:46;;;;;;;10.85;9.75;;;17.10;99.90;;;;;;2040224;29;20043;-71
2021/08/05 01:47:47;;;;;;;10.98;9.88;;;17.10;99.90;;;;;;2047764;29;20106;-71
2021/08/05 01:48:50;;;;;;;11.70;9.85;;;17.10;99.90;;;;;;2047516;29;20525;-70
2021/08/05 01:49:52;;;;;;;11.13;10.02;;;17.10;99.90;;;;;;2048160;28;20039;-71
2021/08/05 01:50:52;;;;;;;10.90;9.80;;;17.10;99.90;;;;;;2040052;28;20402;-71
2021/08/05 01:51:53;;;;;;;11.48;10.23;;;17.10;99.90;;;;;;2040057;29;20090;-72
2021/08/05 01:52:54;;;;;;;11.10;9.63;;;17.10;99.90;;;;;;2032160;29;20144;-70
2021/08/05 01:53:55;;;;;;;11.05;9.95;;;17.10;99.90;;;;;;2040123;29;20499;-70
2021/08/05 01:54:56;;;;;;;12.25;9.55;;;17.10;99.90;;;;;;2048411;28;20399;-71
2021/08/05 01:55:57;;;;;;;10.73;9.70;;;17.10;99.90;;;;;;2047540;29;20574;-71
2021/08/05 01:56:58;;;;;;;10.73;9.63;;;17.10;99.90;;;;;;2047746;29;20130;-70
2021/08/05 01:57:59;;;;;;;10.80;9.70;;;17.10;99.90;;;;;;2039570;28;20032;-72
2021/08/05 01:59:01;;;;;;;11.15;10.05;;;17.10;99.90;;;;;;2039824;29;20024;-72
2021/08/05 02:00:05;;;;;;;10.93;9.90;;;17.10;99.90;;;;;;2039983;29;20063;-71
2021/08/05 02:01:14;;;;;;;11.20;10.05;;;17.10;99.90;;;;;;2041230;29;20028;-71
2021/08/05 02:02:15;;;;;;;11.40;10.05;;;17.10;99.90;;;;;;2047925;29;20027;-69
2021/08/05 02:03:18;;;;;;;11.57;10.38;;;17.10;99.90;;;;;;2048371;29;20035;-70
2021/08/05 02:04:42;;;;;;;12.45;10.45;;;17.10;99.90;;;;;;2047776;29;20035;-71
2021/08/05 02:06:05;;;;;;;12.73;10.25;;;17.20;99.90;;;;;;2047932;29;20074;-71
2021/08/05 02:07:10;;;;;;;12.18;10.73;;;17.10;99.90;;;;;;2047675;29;20031;-71
2021/08/05 02:08:16;;;;;;;11.60;10.40;;;17.10;99.90;;;;;;2039835;29;20024;-69
2021/08/05 02:09:24;;;;;;;11.93;10.60;;;17.10;99.90;;;;;;2040437;29;20032;-71
2021/08/05 02:10:31;;;;;;;11.77;10.57;;;17.10;99.90;;;;;;2040713;29;20034;-69
2021/08/05 02:11:35;;;;;;;12.55;10.60;;;17.10;99.90;;;;;;2040473;29;20032;-69
2021/08/05 02:12:43;;;;;;;12.68;10.88;;;17.10;99.90;;;;;;2040272;29;20031;-69
2021/08/05 02:13:47;;;;;;;11.52;10.43;;;17.10;99.90;;;;;;2047988;29;20031;-70
2021/08/05 02:14:53;;;;;;;12.77;10.95;;;17.10;99.90;;;;;;2047824;29;20038;-71
2021/08/05 02:15:58;;;;;;;11.65;10.43;;;17.10;99.90;;;;;;2040481;29;20120;-71
2021/08/05 02:17:01;;;;;;;11.40;10.20;;;17.10;99.90;;;;;;2047947;29;20040;-72
2021/08/05 02:18:04;;;;;;;11.68;10.48;;;17.10;99.90;;;;;;2047265;29;20204;-72
2021/08/05 02:19:07;;;;;;;11.25;10.05;;;17.10;99.90;;;;;;2047687;29;20483;-69
2021/08/05 02:20:10;;;;;;;10.98;9.88;;;17.10;99.90;;;;;;2047689;29;20131;-69
2021/08/05 02:21:14;;;;;;;11.48;10.38;;;17.10;99.90;;;;;;2039560;29;20046;-69
2021/08/05 02:22:19;;;;;;;11.02;9.93;;;17.10;99.90;;;;;;2040182;29;20106;-68
2021/08/05 02:23:20;;;;;;;11.73;10.52;;;17.10;99.90;;;;;;2047642;29;20103;-69
2021/08/05 02:24:22;;;;;;;10.88;9.77;;;17.10;99.90;;;;;;2047529;28;20087;-69
2021/08/05 02:25:26;;;;;;;11.55;10.45;;;17.10;99.90;;;;;;2039740;29;20559;-70
2021/08/05 02:26:27;;;;;;;11.60;10.38;;;17.10;99.90;;;;;;2047615;29;20855;-71
2021/08/05 02:27:28;;;;;;;11.65;10.45;;;17.10;99.90;;;;;;2047529;29;20054;-71
2021/08/05 02:28:30;;;;;;;11.52;10.43;;;17.10;99.90;;;;;;2047340;29;20072;-71
2021/08/05 02:29:32;;;;;;;11.70;10.50;;;17.10;99.90;;;;;;2047760;29;20031;-69
2021/08/05 02:30:33;;;;;;;11.85;10.60;;;17.10;99.90;;;;;;2047642;29;20035;-71
2021/08/05 02:31:37;;;;;;;12.70;10.80;;;17.10;99.90;;;;;;2048309;28;20073;-69
2021/08/05 02:32:39;;;;;;;11.93;10.60;;;17.10;99.90;;;;;;2048849;28;20031;-69
2021/08/05 02:33:42;;;;;;;11.30;10.20;;;17.10;99.90;;;;;;2041650;29;20063;-69
2021/08/05 02:34:44;;;;;;;11.75;10.60;;;17.10;99.90;;;;;;2041577;29;20036;-69
2021/08/05 02:35:48;;;;;;;12.00;10.80;;;17.10;99.90;;;;;;2042070;29;20601;-70
2021/08/05 02:36:49;;;;;;;11.82;10.63;;;17.10;99.90;;;;;;2041480;29;20486;-71
2021/08/05 02:37:50;;;;;;;11.68;10.48;;;17.10;99.90;;;;;;2041308;29;20027;-70
2021/08/05 02:38:50;;;;;;;11.50;10.30;;;17.10;99.90;;;;;;2041083;29;20031;-71
2021/08/05 02:39:51;;;;;;;11.15;10.05;;;17.00;99.90;;;;;;2049714;29;20094;-72
2021/08/05 02:40:53;;;;;;;12.23;10.98;;;17.10;99.90;;;;;;2049902;29;20034;-72
2021/08/05 02:41:54;;;;;;;11.73;10.52;;;17.10;99.90;;;;;;2049877;28;20070;-71
2021/08/05 02:42:56;;;;;;;11.32;10.23;;;17.10;99.90;;;;;;2049228;29;20042;-71
2021/08/05 02:43:57;;;;;;;11.68;10.43;;;17.10;99.90;;;;;;2041314;29;20109;-71
2021/08/05 02:44:59;;;;;;;11.57;10.40;;;17.10;99.90;;;;;;2049046;29;20027;-71
2021/08/05 02:46:02;;;;;;;11.93;10.73;;;17.10;99.90;;;;;;2041140;29;20048;-71
2021/08/05 02:47:04;;;;;;;12.10;10.90;;;17.10;99.90;;;;;;2041410;29;20515;-71
2021/08/05 02:48:07;;;;;;;14.00;11.95;;;17.10;99.90;;;;;;2048865;29;20046;-71
2021/08/05 02:49:08;;;;;;;12.77;11.38;;;17.00;99.90;;;;;;2049077;29;20491;-70
2021/08/05 02:50:10;;;;;;;12.80;11.32;;;17.00;99.90;;;;;;2049100;29;20122;-71
2021/08/05 02:51:11;;;;;;;11.80;10.63;;;17.00;99.90;;;;;;2048973;29;20117;-72
2021/08/05 02:52:12;;;;;;;12.00;10.80;;;17.00;99.90;;;;;;2049155;29;20035;-70
2021/08/05 02:53:13;;;;;;;13.50;11.52;;;17.00;99.90;;;;;;2049031;29;20035;-71
2021/08/05 02:54:15;;;;;;;12.73;11.30;;;17.00;99.90;;;;;;2049036;29;20031;-70
2021/08/05 02:55:16;;;;;;;13.07;11.77;;;17.00;99.90;;;;;;2048921;29;20051;-70
2021/08/05 02:56:18;;;;;;;12.57;11.32;;;17.00;99.90;;;;;;2041206;29;20455;-70
2021/08/05 02:57:19;;;;;;;12.75;11.45;;;17.00;99.90;;;;;;2041385;29;20040;-70
2021/08/05 02:58:20;;;;;;;12.60;11.30;;;17.00;99.90;;;;;;2048820;29;20086;-71
2021/08/05 02:59:21;;;;;;;12.70;11.40;;;17.00;99.90;;;;;;2041166;29;20091;-72
2021/08/05 03:00:22;;;;;;;11.88;10.70;;;17.00;99.90;;;;;;2033503;29;20130;-70
2021/08/05 03:01:23;;;;;;;12.63;11.32;;;17.00;99.90;;;;;;2042007;29;20551;-70
2021/08/05 03:02:24;;;;;;;12.02;10.70;;;17.00;99.90;;;;;;2050471;29;20078;-71
2021/08/05 03:03:24;;;;;;;12.00;10.63;;;17.00;99.90;;;;;;2049663;28;20035;-72
2021/08/05 03:04:33;;;;;;;12.02;10.82;;;17.00;99.90;;;;;;2049828;29;20050;-72
2021/08/05 03:05:33;;;;;;;12.23;10.93;;;17.00;99.90;;;;;;2049426;29;20031;-72
2021/08/05 03:06:34;;;;;;;11.95;10.75;;;17.00;99.90;;;;;;2049953;29;20571;-72
2021/08/05 03:07:35;;;;;;;11.98;10.77;;;17.00;99.90;;;;;;2049848;29;20031;-70
2021/08/05 03:08:42;;;;;;;11.55;10.45;;;17.00;99.90;;;;;;2049760;29;20023;-70
2021/08/05 03:09:43;;;;;;;11.77;10.35;;;17.00;99.90;;;;;;2049489;29;20023;-68
2021/08/05 03:10:44;;;;;;;12.30;10.73;;;17.00;99.90;;;;;;2049149;29;20062;-71
2021/08/05 03:11:44;;;;;;;11.77;10.60;;;17.00;99.90;;;;;;2049870;29;20023;-70
2021/08/05 03:12:45;;;;;;;11.70;10.50;;;17.00;99.90;;;;;;2049762;29;20133;-71
2021/08/05 03:13:46;;;;;;;11.45;10.35;;;16.90;99.90;;;;;;2049628;29;20086;-69
2021/08/05 03:14:47;;;;;;;11.35;10.25;;;17.00;99.90;;;;;;2049761;28;20031;-70
2021/08/05 03:15:47;;;;;;;11.95;10.75;;;17.00;99.90;;;;;;2048987;29;20411;-71
2021/08/05 03:16:48;;;;;;;12.10;10.70;;;16.90;99.90;;;;;;2049146;29;20114;-71
2021/08/05 03:17:49;;;;;;;11.40;10.25;;;17.00;99.90;;;;;;2049458;29;20042;-71
2021/08/05 03:18:49;;;;;;;11.52;10.40;;;17.00;99.90;;;;;;2048932;29;20039;-71
2021/08/05 03:19:50;;;;;;;11.52;10.40;;;16.90;99.90;;;;;;2049574;29;20027;-71
2021/08/05 03:20:51;;;;;;;11.30;10.20;;;16.90;99.90;;;;;;2049535;29;20027;-70
2021/08/05 03:21:51;;;;;;;12.57;10.65;;;16.90;99.90;;;;;;2049549;29;20558;-72
2021/08/05 03:22:52;;;;;;;12.40;10.82;;;16.90;99.90;;;;;;2049675;29;20027;-72
2021/08/05 03:23:52;;;;;;;11.95;10.75;;;17.00;99.90;;;;;;2049693;29;20658;-72
2021/08/05 03:24:53;;;;;;;11.85;10.70;;;16.90;99.90;;;;;;2049567;29;20106;-70
2021/08/05 03:25:54;;;;;;;11.43;10.18;;;16.90;99.90;;;;;;2048985;29;20027;-72
2021/08/05 03:26:54;;;;;;;13.38;10.77;;;16.90;99.90;;;;;;2049076;29;20031;-72
2021/08/05 03:27:55;;;;;;;11.85;10.65;;;16.90;99.90;;;;;;2049418;29;20027;-71
2021/08/05 03:28:57;;;;;;;11.45;10.35;;;16.90;99.90;;;;;;2048619;29;20027;-71
2021/08/05 03:29:57;;;;;;;11.68;10.48;;;16.90;99.90;;;;;;2048910;29;20094;-71
2021/08/05 03:30:58;;;;;;;11.40;10.23;;;16.90;99.90;;;;;;2049525;29;20118;-72
2021/08/05 03:31:59;;;;;;;11.40;10.20;;;16.90;99.90;;;;;;2049617;28;20027;-71
2021/08/05 03:33:00;;;;;;;12.35;11.05;;;16.90;99.90;;;;;;2049694;29;20039;-71
2021/08/05 03:34:01;;;;;;;11.38;10.27;;;16.90;99.90;;;;;;2048983;29;20384;-72
2021/08/05 03:35:02;;;;;;;12.07;10.73;;;16.90;99.90;;;;;;2040815;29;20138;-71
2021/08/05 03:36:03;;;;;;;10.85;9.75;;;16.90;99.90;;;;;;2048769;29;20035;-72
2021/08/05 03:37:04;;;;;;;11.52;10.30;;;16.90;99.90;;;;;;2049497;29;20455;-71
2021/08/05 03:38:04;;;;;;;11.90;10.70;;;16.90;99.90;;;;;;2049003;29;20035;-71
2021/08/05 03:39:05;;;;;;;11.18;10.07;;;17.00;99.90;;;;;;2048756;29;20093;-72
2021/08/05 03:40:06;;;;;;;12.15;10.68;;;17.00;99.90;;;;;;2048732;29;20058;-71
2021/08/05 03:41:07;;;;;;;12.25;10.98;;;17.00;99.90;;;;;;2049298;29;20401;-71
2021/08/05 03:42:07;;;;;;;11.98;10.65;;;17.00;99.90;;;;;;2049282;29;20030;-71
2021/08/05 03:43:08;;;;;;;12.20;10.93;;;17.00;99.90;;;;;;2049272;29;20023;-71
2021/08/05 03:44:09;;;;;;;10.95;9.85;;;17.00;99.90;;;;;;2047677;28;20126;-71
2021/08/05 03:45:10;;;;;;;11.60;10.40;;;17.00;99.90;;;;;;2048722;29;20030;-72
2021/08/05 03:46:11;;;;;;;11.90;10.60;;;17.00;99.90;;;;;;2049160;28;20023;-71
2021/08/05 03:47:11;;;;;;;11.63;10.45;;;17.00;99.90;;;;;;2049260;29;20027;-71
2021/08/05 03:48:12;;;;;;;11.27;10.18;;;17.00;99.90;;;;;;2049065;28;20078;-71
2021/08/05 03:49:13;;;;;;;11.82;10.60;;;17.00;99.90;;;;;;2049291;29;20027;-72
2021/08/05 03:50:13;;;;;;;10.75;9.75;;;17.00;99.90;;;;;;2049323;29;20039;-72
2021/08/05 03:51:14;;;;;;;11.68;10.48;;;17.00;99.90;;;;;;2049356;28;20039;-73
2021/08/05 03:52:15;;;;;;;11.10;10.00;;;17.00;99.90;;;;;;2049278;29;20034;-73
2021/08/05 03:53:15;;;;;;;11.63;10.40;;;17.00;99.90;;;;;;2049407;28;20611;-73
2021/08/05 03:54:16;;;;;;;11.32;10.18;;;17.00;99.90;;;;;;2049451;28;20042;-72
2021/08/05 03:55:16;;;;;;;11.68;10.48;;;17.00;99.90;;;;;;2049315;29;20391;-72
2021/08/05 03:56:17;;;;;;;11.98;10.02;;;17.00;99.90;;;;;;2048571;29;20038;-72
2021/08/05 03:57:18;;;;;;;12.68;10.68;;;17.00;99.90;;;;;;2048760;29;20039;-71
2021/08/05 03:58:18;;;;;;;12.13;10.93;;;17.10;99.90;;;;;;2049005;28;20095;-72
2021/08/05 03:59:19;;;;;;;11.95;10.75;;;17.00;99.90;;;;;;2048420;29;20028;-72
2021/08/05 04:00:20;;;;;;;12.45;11.15;;;17.10;99.90;;;;;;2048664;29;20667;-73
2021/08/05 04:01:21;;;;;;;11.82;10.57;;;17.10;99.90;;;;;;2049245;29;20070;-71
2021/08/05 04:02:21;;;;;;;12.52;10.90;;;17.00;99.90;;;;;;2049100;28;20039;-72
2021/08/05 04:03:22;;;;;;;11.77;10.55;;;17.00;99.90;;;;;;2049123;29;20035;-72
2021/08/05 04:04:22;;;;;;;11.25;10.15;;;17.10;99.90;;;;;;2049154;29;20559;-71
2021/08/05 04:05:23;;;;;;;12.35;11.05;;;17.00;99.90;;;;;;2049246;28;20506;-70
2021/08/05 04:06:24;;;;;;;12.30;10.85;;;17.00;99.90;;;;;;2049177;29;20019;-70
2021/08/05 04:07:24;;;;;;;11.80;10.60;;;17.00;99.90;;;;;;2049058;29;20845;-72
2021/08/05 04:08:25;;;;;;;11.93;10.73;;;17.00;99.90;;;;;;2049298;29;20407;-71
2021/08/05 04:09:25;;;;;;;12.70;11.35;;;17.00;99.90;;;;;;2048869;29;20158;-73
2021/08/05 04:10:26;;;;;;;12.23;10.93;;;17.00;99.90;;;;;;2049171;29;20494;-70
2021/08/05 04:11:27;;;;;;;11.65;10.30;;;17.00;99.90;;;;;;2048993;29;20046;-70
2021/08/05 04:12:27;;;;;;;11.95;10.75;;;17.00;99.90;;;;;;2048508;29;20074;-72
2021/08/05 04:13:28;;;;;;;14.38;11.10;;;17.00;99.90;;;;;;2048566;29;20039;-71
2021/08/05 04:14:29;;;;;;;12.07;10.80;;;17.00;99.90;;;;;;2049100;28;20082;-71
2021/08/05 04:15:29;;;;;;;11.25;10.13;;;17.00;99.90;;;;;;2049151;29;20640;-71
2021/08/05 04:16:30;;;;;;;11.68;10.40;;;17.00;99.90;;;;;;2049856;29;20038;-70
2021/08/05 04:17:33;;;;;;;11.77;10.20;;;17.00;99.90;;;;;;2049291;29;20039;-71
2021/08/05 04:18:33;;;;;;;12.35;11.10;;;17.00;99.90;;;;;;2048211;29;20031;-75
2021/08/05 04:19:34;;;;;;;13.38;11.75;;;17.00;99.90;;;;;;2048594;29;20035;-73
2021/08/05 04:20:35;;;;;;;12.63;11.30;;;17.00;99.90;;;;;;2049190;29;20480;-72
2021/08/05 04:21:35;;;;;;;14.02;11.38;;;17.00;99.90;;;;;;2049061;28;20030;-73
2021/08/05 04:22:36;;;;;;;12.63;10.73;;;17.00;99.90;;;;;;2048221;29;20487;-71
2021/08/05 04:23:36;;;;;;;11.93;10.68;;;17.00;99.90;;;;;;2048749;29;20078;-70
2021/08/05 04:24:37;;;;;;;12.20;10.93;;;17.00;99.90;;;;;;2049212;29;20035;-71
2021/08/05 04:25:38;;;;;;;11.80;10.60;;;17.00;99.90;;;;;;2048859;29;20126;-72
2021/08/05 04:26:38;;;;;;;11.70;10.50;;;17.00;99.90;;;;;;2048549;29;20035;-71
2021/08/05 04:27:40;;;;;;;11.85;10.65;;;17.00;99.90;;;;;;2048910;28;20368;-72
2021/08/05 04:28:40;;;;;;;11.90;10.63;;;17.00;99.90;;;;;;2048848;29;20027;-71
2021/08/05 04:29:41;;;;;;;11.68;10.50;;;17.00;99.90;;;;;;2049256;28;20114;-72
2021/08/05 04:30:42;;;;;;;12.30;10.50;;;17.00;99.90;;;;;;2048407;29;20488;-72
2021/08/05 04:31:45;;;;;;;11.50;10.27;;;17.00;99.90;;;;;;2040544;29;20055;-72
2021/08/05 04:32:46;;;;;;;11.23;10.05;;;17.00;99.90;;;;;;2041035;29;20040;-73
2021/08/05 04:33:46;;;;;;;12.23;10.45;;;17.00;99.90;;;;;;2048674;29;20163;-73
2021/08/05 04:34:48;;;;;;;11.85;10.65;;;17.00;99.90;;;;;;2049153;29;20504;-74
2021/08/05 04:35:48;;;;;;;12.00;10.70;;;17.10;99.90;;;;;;2049572;29;20502;-71
2021/08/05 04:36:49;;;;;;;12.20;11.00;;;17.10;99.90;;;;;;2049589;29;20034;-73
2021/08/05 04:37:56;;;;;;;12.10;10.80;;;17.00;99.90;;;;;;2049578;29;20043;-71
2021/08/05 04:38:57;;;;;;;11.75;10.55;;;17.10;99.90;;;;;;2049452;29;20038;-71
2021/08/05 04:39:58;;;;;;;11.98;10.77;;;17.10;99.90;;;;;;2049604;29;20026;-71
2021/08/05 04:40:58;;;;;;;12.02;10.73;;;17.10;99.90;;;;;;2049623;28;20038;-72
2021/08/05 04:42:00;;;;;;;11.98;10.57;;;17.10;99.90;;;;;;2049678;28;20023;-77
2021/08/05 04:43:00;;;;;;;12.90;10.70;;;17.10;99.90;;;;;;2049699;29;20476;-71
2021/08/05 04:44:01;;;;;;;13.57;11.30;;;17.10;99.90;;;;;;2049556;29;20054;-72
2021/08/05 04:45:01;;;;;;;14.10;11.70;;;17.10;99.90;;;;;;2049476;29;20041;-73
2021/08/05 04:46:02;;;;;;;12.82;11.40;;;17.10;99.90;;;;;;2049403;29;20027;-71
2021/08/05 04:47:03;;;;;;;12.68;11.10;;;17.10;99.90;;;;;;2049410;28;20024;-70
2021/08/05 04:48:07;;;;;;;16.48;12.98;;;17.10;99.90;;;;;;2049452;28;20472;-73
2021/08/05 04:49:08;;;;;;;20.15;13.32;;;17.10;99.90;;;;;;2048685;29;20042;-70
2021/08/05 04:50:09;;;;;;;19.90;13.00;;;17.10;99.90;;;;;;2048732;29;20069;-70
2021/08/05 04:51:09;;;;;;;19.50;13.55;;;17.10;99.90;;;;;;2048731;29;20037;-74
2021/08/05 04:52:10;;;;;;;19.55;13.02;;;17.20;99.90;;;;;;2048775;29;20039;-71
2021/08/05 04:53:16;;;;;;;18.73;13.30;;;17.20;99.90;;;;;;2049474;29;20137;-70
2021/08/05 04:54:16;;;;;;;17.42;13.27;;;17.20;99.90;;;;;;2049239;29;20027;-70
2021/08/05 04:55:17;;;;;;;18.02;13.02;;;17.20;99.90;;;;;;2049252;28;20039;-70
2021/08/05 04:56:18;;;;;;;18.38;13.73;;;17.20;99.90;;;;;;2048789;29;20038;-72
2021/08/05 04:57:18;;;;;;;17.45;12.65;;;17.20;99.90;;;;;;2048521;29;20032;-71
2021/08/05 04:58:19;;;;;;;19.00;13.65;;;17.20;99.90;;;;;;2049103;28;20090;-72
2021/08/05 04:59:19;;;;;;;17.35;13.20;;;17.20;99.90;;;;;;2048731;29;20439;-72
2021/08/05 05:00:34;;;;;;;15.95;12.95;;;17.20;99.90;;;;;;2048850;29;20066;-72
2021/08/05 05:01:35;;;;;;;18.27;12.63;;;17.20;99.90;;;;;;2048173;28;20035;-71
2021/08/05 05:02:35;;;;;;;16.55;13.05;;;17.30;99.90;;;;;;2048183;29;20083;-72
2021/08/05 05:03:36;;;;;;;18.48;12.82;;;17.30;99.90;;;;;;2049260;29;20023;-69
2021/08/05 05:04:39;;;;;;;16.65;12.40;;;17.30;99.90;;;;;;2049434;28;20395;-71
2021/08/05 05:05:40;;;;;;;17.20;12.55;;;17.30;99.90;;;;;;2048758;29;20036;-70
2021/08/05 05:06:40;;;;;;;18.73;12.98;;;17.30;99.90;;;;;;2048693;29;20704;-71
2021/08/05 05:07:41;;;;;;;18.25;12.85;;;17.40;99.90;;;;;;2048547;29;20031;-71
2021/08/05 05:08:42;;;;;;;18.65;12.57;;;17.30;99.90;;;;;;2048551;28;20031;-69
2021/08/05 05:09:42;;;;;;;18.40;12.75;;;17.40;99.90;;;;;;2048162;29;20078;-70
2021/08/05 05:10:44;;;;;;;16.20;12.68;;;17.40;99.90;;;;;;2048010;29;20115;-70
2021/08/05 05:11:44;;;;;;;16.48;12.30;;;17.40;99.90;;;;;;2048572;29;20083;-72
2021/08/05 05:12:45;;;;;;;17.80;12.80;;;17.50;99.90;;;;;;2048617;29;20082;-70
2021/08/05 05:13:46;;;;;;;17.67;12.88;;;17.50;99.90;;;;;;2048546;28;20400;-71
2021/08/05 05:14:46;;;;;;;18.30;12.82;;;17.50;99.90;;;;;;2048502;29;20035;-72
2021/08/05 05:15:48;;;;;;;15.82;11.90;;;17.50;99.90;;;;;;2048528;28;20027;-71
2021/08/05 05:16:49;;;;;;;15.65;12.15;;;17.50;99.90;;;;;;2048746;29;20406;-72
2021/08/05 05:17:50;;;;;;;14.48;11.50;;;17.50;99.90;;;;;;2040534;28;20032;-71
2021/08/05 05:18:50;;;;;;;13.20;11.52;;;17.50;99.90;;;;;;2040099;29;20060;-71
2021/08/05 05:19:51;;;;;;;16.02;12.20;;;17.60;99.90;;;;;;2048380;29;20035;-71
2021/08/05 05:20:53;;;;;;;15.10;12.25;;;17.60;99.90;;;;;;2048596;29;20035;-73
2021/08/05 05:21:53;;;;;;;14.73;12.13;;;17.60;99.90;;;;;;2048675;28;20031;-72
2021/08/05 05:22:54;;;;;;;14.98;11.18;;;17.60;99.90;;;;;;2048733;29;20391;-72